Latest Weather Observations for Wadeye (Port Keats)

IDD60801

Issued at 10:35 pm CST Tuesday 21 October 2014 (issued every 30 minutes, with the page automatically refreshed every 10 minutes)

About weather observations | Map of weather stations | Latest weather observations for NT | Other Formats
Station Details ID: 014948 Name: PORT KEATS AIRPORT Lat: -14.25 Lon: 129.53 Height: 28.0 m
Data from the previous 72 hours. | See also: Recent months at Wadeye (Port Keats)
Date/Time
CST
Temp
°C
App
Temp
°C
Dew
Point
Rel
Hum
%
Delta-T
°C
Wind Press
QNH
hPa
Press
MSL
hPa
Rain
since 9 am
mm
Dir
 
Spd
km/h
Gust
km/h
Spd
kts
Gust
kts
21/10:30pm 26.7 31.9 22.8 79 2.6 WSW 0 4 0 2 1013.9 1013.7 0.0
21/10:00pm 26.8 30.9 22.2 76 3.1 WNW 4 6 2 3 1013.7 1013.5 0.0
21/09:30pm 27.4 32.5 22.6 75 3.3 CALM 0 0 0 0 1013.6 1013.4 0.0
21/09:00pm 27.5 32.2 22.7 75 3.3 WSW 2 6 1 3 1013.2 1013.0 0.0
21/08:30pm 27.7 31.6 22.6 74 3.5 WNW 6 9 3 5 1013.1 1012.9 0.0
21/08:00pm 27.8 31.5 22.5 73 3.6 WSW 7 11 4 6 1012.9 1012.7 0.0
21/07:30pm 28.1 31.4 22.6 72 3.7 W 9 11 5 6 1012.7 1012.5 0.0
21/07:00pm 28.5 31.8 22.5 70 4.1 WNW 9 17 5 9 1012.5 1012.3 0.0
21/06:30pm 29.1 31.8 22.1 66 4.7 W 11 15 6 8 1012.2 1012.0 0.0
21/06:00pm 29.6 31.9 22.1 64 5.1 W 13 22 7 12 1012.0 1011.8 0.0
21/05:30pm 30.4 32.2 21.8 60 5.8 W 15 22 8 12 1011.7 1011.5 0.0
21/05:00pm 29.5 31.4 22.0 64 5.1 WNW 15 20 8 11 1011.8 1011.6 0.0
21/04:30pm 29.6 30.3 20.5 58 6.0 WNW 17 24 9 13 1011.9 1011.7 0.0
21/04:00pm 31.0 31.2 20.6 54 6.9 W 20 32 11 17 1011.6 1011.4 0.0
21/03:30pm 32.0 32.3 19.6 47 8.2 WNW 17 26 9 14 1011.7 1011.5 0.0
21/03:00pm 32.1 32.8 21.6 53 7.1 NW 20 32 11 17 1011.7 1011.5 0.0
21/02:30pm 31.8 31.8 21.0 52 7.2 NW 22 32 12 17 1012.3 1012.1 0.0
21/02:00pm 32.2 32.4 21.4 53 7.3 NW 22 32 12 17 1012.5 1012.3 0.0
21/01:30pm 32.4 32.2 20.6 49 7.9 NNW 22 32 12 17 1013.1 1012.9 0.0
21/01:00pm 32.2 32.6 21.7 54 7.1 NW 22 32 12 17 1013.9 1013.7 0.0
21/12:30pm 31.2 31.5 20.8 54 6.9 WNW 20 28 11 15 1014.6 1014.4 0.0
21/12:00pm 31.3 32.4 22.3 58 6.1 NW 20 30 11 16 1015.1 1014.9 0.0
21/11:30am 31.2 32.5 21.7 57 6.4 NW 17 28 9 15 1015.6 1015.4 0.0
21/11:00am 31.1 32.2 21.3 56 6.6 WNW 17 22 9 12 1015.8 1015.6 0.0
21/10:30am 31.0 31.7 21.5 57 6.4 NNW 20 28 11 15 1015.9 1015.7 0.0
21/10:00am 30.9 32.5 22.8 62 5.5 NNW 19 26 10 14 1016.0 1015.8 0.0
21/09:30am 30.0 32.3 22.7 65 5.0 NW 15 20 8 11 1016.0 1015.8 0.0
21/09:00am 29.4 31.6 22.6 67 4.6 NNW 15 20 8 11 1016.0 1015.8 0.2
21/08:30am 29.9 31.5 22.1 63 5.3 NW 17 20 9 11 1015.8 1015.6 0.2
21/08:00am 29.3 32.0 22.8 68 4.4 NNW 13 20 7 11 1015.4 1015.2 0.2
21/07:30am 28.2 31.6 22.7 72 3.7 NNW 9 11 5 6 1014.9 1014.7 0.2
21/07:00am 27.3 30.8 22.9 77 3.0 NNW 9 15 5 8 1014.4 1014.2 0.2
21/06:30am 25.3 30.4 22.6 85 1.8 CALM 0 0 0 0 1014.2 1014.0 0.2
21/06:00am 26.1 30.3 23.2 84 2.0 ESE 6 7 3 4 1014.1 1013.9 0.2
21/05:30am 25.5 29.4 22.6 84 2.0 ESE 6 9 3 5 1013.8 1013.6 0.2
21/05:00am 26.0 30.0 22.7 82 2.2 N 6 9 3 5 1013.3 1013.1 0.2
21/04:30am 26.4 30.5 23.3 83 2.1 NNW 7 11 4 6 1012.8 1012.6 0.2
21/04:00am 25.1 29.6 23.0 88 1.4 NW 4 9 2 5 1012.5 1012.3 0.2
21/03:30am 24.9 30.2 23.0 89 1.3 CALM 0 0 0 0 1012.5 1012.3 0.2
21/03:00am 24.9 28.9 23.1 90 1.2 NNE 7 9 4 5 1012.4 1012.2 0.2
21/02:30am 23.7 27.9 21.8 89 1.3 NW 2 7 1 4 1012.0 1011.8 0.2
21/02:00am 23.8 28.4 21.7 88 1.4 CALM 0 0 0 0 1012.3 1012.1 0.2
21/01:30am 24.7 29.6 22.4 87 1.5 CALM 0 0 0 0 1012.6 1012.4 0.2
21/01:00am 24.8 29.8 22.5 87 1.5 CALM 0 2 0 1 1012.8 1012.6 0.2
21/12:30am 25.3 30.0 23.4 89 1.3 E 4 7 2 4 1013.1 1012.9 0.2
21/12:00am 25.2 30.5 23.1 88 1.4 ENE 0 0 0 0 1013.1 1012.9 0.2
 
Date/Time
CST
Temp
°C
App
Temp
°C
Dew
Point
Rel
Hum
%
Delta-T
°C
Wind Press
QNH
hPa
Press
MSL
hPa
Rain
since 9 am
mm
Dir
 
Spd
km/h
Gust
km/h
Spd
kts
Gust
kts
20/11:30pm 25.3 30.5 22.8 86 1.7 CALM 0 0 0 0 1013.1 1012.9 0.2
20/11:00pm 25.4 30.4 22.5 84 2.0 CALM 0 0 0 0 1013.0 1012.8 0.2
20/10:30pm 26.0 31.4 23.3 85 1.8 CALM 0 6 0 3 1012.9 1012.7 0.2
20/10:00pm 26.0 31.2 22.9 83 2.1 CALM 0 4 0 2 1012.7 1012.5 0.2
20/09:30pm 25.7 29.5 22.4 82 2.2 WSW 6 7 3 4 1012.5 1012.3 0.2
20/09:00pm 26.5 30.9 22.8 80 2.5 W 4 6 2 3 1012.3 1012.1 0.2
20/08:30pm 26.9 31.9 23.2 80 2.5 W 2 6 1 3 1012.1 1011.9 0.2
20/08:00pm 27.1 31.2 22.9 78 2.9 WSW 6 7 3 4 1011.6 1011.4 0.2
20/07:30pm 27.6 31.7 23.0 76 3.1 W 6 7 3 4 1011.4 1011.2 0.2
20/07:00pm 28.1 32.0 23.0 74 3.5 W 7 13 4 7 1011.0 1010.8 0.2
20/06:30pm 28.9 32.1 22.4 68 4.4 WNW 9 15 5 8 1010.7 1010.5 0.2
20/06:00pm 29.5 32.0 22.5 66 4.8 W 13 20 7 11 1010.4 1010.2 0.2
20/05:30pm 30.0 32.4 22.9 65 4.9 W 15 24 8 13 1010.4 1010.2 0.2
20/05:00pm 29.9 31.6 22.3 63 5.2 W 17 22 9 12 1010.2 1010.0 0.2
20/04:30pm 31.0 33.2 22.6 61 5.7 W 15 24 8 13 1010.3 1010.1 0.2
20/04:00pm 30.6 32.2 22.2 61 5.7 W 17 26 9 14 1010.6 1010.4 0.2
20/03:30pm 30.1 31.8 21.7 60 5.7 W 15 26 8 14 1010.9 1010.7 0.2
20/03:00pm 30.6 32.0 21.9 59 5.9 WSW 17 26 9 14 1011.2 1011.0 0.2
20/02:30pm 30.3 32.2 23.5 67 4.7 WSW 19 30 10 16 1011.5 1011.3 0.2
20/02:00pm 28.9 31.1 22.6 69 4.3 WSW 15 20 8 11 1011.9 1011.7 0.0
20/01:30pm 30.7 32.6 22.0 59 5.9 WNW 15 24 8 13 1012.4 1012.2 0.0
20/01:00pm 29.4 30.8 22.6 67 4.6 NW 19 24 10 13 1012.9 1012.7 0.0
20/12:30pm 31.2 34.3 22.8 61 5.8 W 11 22 6 12 1013.5 1013.3 0.0
20/12:00pm 30.7 32.9 21.8 59 6.0 WSW 13 20 7 11 1014.1 1013.9 0.0
20/11:30am 31.2 33.6 23.0 61 5.6 NNW 15 20 8 11 1014.5 1014.3 0.0
20/11:00am 30.4 33.6 23.1 65 5.0 WNW 11 15 6 8 1014.8 1014.6 0.0
20/10:30am 30.3 33.6 21.9 60 5.7 WSW 7 11 4 6 1015.2 1015.0 0.0
20/10:00am 29.7 33.0 21.9 63 5.3 W 7 11 4 6 1015.6 1015.4 0.0
20/09:30am 29.7 32.8 22.2 64 5.1 WNW 9 13 5 7 1015.5 1015.3 0.0
20/09:00am 30.6 34.3 22.5 62 5.5 N 7 15 4 8 1015.2 1015.0 0.0
20/08:30am 28.9 33.4 22.9 70 4.1 N 4 7 2 4 1015.2 1015.0 0.0
20/08:00am 27.1 32.7 23.6 81 2.4 CALM 0 0 0 0 1015.0 1014.8 0.0
20/07:30am 26.0 30.5 22.9 83 2.1 E 4 7 2 4 1014.5 1014.3 0.0
20/07:00am 25.4 29.9 22.9 86 1.7 SE 4 6 2 3 1014.0 1013.8 0.0
20/06:30am 24.9 30.2 23.0 89 1.3 CALM 0 0 0 0 1013.8 1013.6 0.0
20/06:00am 25.1 30.4 23.0 88 1.4 CALM 0 0 0 0 1013.4 1013.2 0.0
20/05:30am 24.4 29.4 22.5 89 1.3 CALM 0 0 0 0 1013.0 1012.8 0.0
20/05:00am 24.6 29.6 22.5 88 1.4 CALM 0 0 0 0 1012.6 1012.4 0.0
20/04:30am 24.5 29.4 22.4 88 1.4 CALM 0 0 0 0 1012.4 1012.2 0.0
20/04:00am 25.0 29.9 22.3 85 1.8 CALM 0 0 0 0 1012.3 1012.1 0.0
20/03:30am 26.0 31.3 23.1 84 2.0 CALM 0 0 0 0 1012.3 1012.1 0.0
20/03:00am 26.2 30.5 23.3 84 2.0 NE 6 9 3 5 1012.4 1012.2 0.0
20/02:30am 25.9 30.3 22.8 83 2.1 ENE 4 7 2 4 1012.3 1012.1 0.0
20/02:00am 26.2 30.1 22.9 82 2.2 NNE 7 9 4 5 1012.4 1012.2 0.0
20/01:30am 25.7 29.8 23.0 85 1.8 NW 6 9 3 5 1012.2 1012.0 0.0
20/01:00am 25.7 29.5 22.4 82 2.2 NW 6 9 3 5 1012.5 1012.3 0.0
20/12:30am 26.4 30.6 23.1 82 2.2 NNW 6 9 3 5 1012.7 1012.5 0.0
20/12:00am 25.8 30.4 22.5 82 2.2 W 2 6 1 3 1012.9 1012.7 0.0
 
Date/Time
CST
Temp
°C
App
Temp
°C
Dew
Point
Rel
Hum
%
Delta-T
°C
Wind Press
QNH
hPa
Press
MSL
hPa
Rain
since 9 am
mm
Dir
 
Spd
km/h
Gust
km/h
Spd
kts
Gust
kts
19/11:30pm 26.8 31.9 22.6 78 2.8 CALM 0 0 0 0 1013.1 1012.9 0.0
19/11:00pm 27.2 31.2 22.8 77 3.0 NW 6 9 3 5 1012.9 1012.7 0.0
19/10:30pm 27.3 31.2 22.9 77 3.0 WNW 7 9 4 5 1012.8 1012.6 0.0
19/10:00pm 27.8 31.9 23.2 76 3.1 NNW 7 13 4 7 1012.7 1012.5 0.0
19/09:30pm 27.6 31.5 23.0 76 3.1 NW 7 11 4 6 1012.6 1012.4 0.0
19/09:00pm 27.5 31.3 22.7 75 3.3 WNW 7 11 4 6 1012.3 1012.1 0.0
19/08:30pm 27.7 31.6 22.9 75 3.3 WNW 7 9 4 5 1011.9 1011.7 0.0
19/08:00pm 28.0 31.9 22.9 74 3.5 WNW 7 11 4 6 1011.7 1011.5 0.0
19/07:30pm 28.2 31.7 22.9 73 3.6 W 9 15 5 8 1011.2 1011.0 0.0
19/07:00pm 28.4 31.5 22.9 72 3.8 W 11 17 6 9 1010.9 1010.7 0.0
19/06:30pm 29.1 31.8 22.8 69 4.3 W 13 22 7 12 1010.5 1010.3 0.0
19/06:00pm 30.2 32.4 22.6 63 5.2 W 15 26 8 14 1010.2 1010.0 0.0
19/05:30pm 30.5 31.5 21.0 57 6.4 W 17 24 9 13 1009.8 1009.6 0.0
19/05:00pm 31.0 32.5 22.0 58 6.1 W 17 24 9 13 1009.7 1009.5 0.0
19/04:30pm 31.6 33.5 22.0 56 6.5 W 15 24 8 13 1009.8 1009.6 0.0
19/04:00pm 31.7 32.3 20.3 50 7.6 W 17 30 9 16 1009.9 1009.7 0.0
19/03:30pm 32.4 33.0 20.3 48 8.1 W 17 24 9 13 1010.1 1009.9 0.0
19/03:00pm 32.7 33.1 19.9 46 8.5 W 17 30 9 16 1010.3 1010.1 0.0
19/02:30pm 32.9 33.6 20.4 47 8.3 WNW 17 28 9 15 1010.7 1010.5 0.0
19/02:00pm 32.2 32.9 20.5 50 7.8 NW 17 26 9 14 1010.9 1010.7 0.0
19/01:30pm 33.3 34.2 20.8 48 8.4 NW 17 24 9 13 1011.3 1011.1 0.0
19/01:00pm 32.8 33.9 21.3 50 7.8 NW 17 26 9 14 1011.9 1011.7 0.0
19/12:30pm 32.7 34.5 21.2 50 7.8 NW 13 24 7 13 1012.5 1012.3 0.0
19/12:00pm 32.3 34.7 21.5 53 7.3 NW 11 19 6 10 1013.0 1012.8 0.0
19/11:30am 32.7 33.7 20.2 47 8.3 N 15 22 8 12 1013.6 1013.4 0.0
19/11:00am 32.5 33.2 19.7 46 8.5 N 15 22 8 12 1014.1 1013.9 0.0
19/10:30am 31.5 33.3 21.1 54 7.0 N 13 20 7 11 1014.4 1014.2 0.0
19/10:00am 30.1 31.8 20.9 57 6.1 N 13 20 7 11 1014.7 1014.5 0.0
19/09:30am 30.1 32.7 22.0 62 5.5 NNE 11 20 6 11 1014.8 1014.6 0.0
19/09:00am 28.8 31.9 22.1 67 4.5 N 9 13 5 7 1014.8 1014.6 0.0
19/08:30am 28.7 32.7 23.1 71 3.8 ENE 7 11 4 6 1014.6 1014.4 0.0
19/08:00am 26.7 30.2 22.8 79 2.6 E 9 13 5 7 1014.6 1014.4 0.0
19/07:30am 25.6 29.4 22.7 84 2.0 E 7 9 4 5 1014.2 1014.0 0.0
19/07:00am 24.6 29.1 22.3 87 1.5 E 2 7 1 4 1013.7 1013.5 0.0
19/06:30am 24.1 27.2 22.2 89 1.3 ENE 9 11 5 6 1013.4 1013.2 0.0
19/06:00am 24.0 27.2 22.3 90 1.1 E 9 11 5 6 1012.9 1012.7 0.0
19/05:30am 23.1 26.7 22.1 94 0.7 SE 6 9 3 5 1012.5 1012.3 0.0
19/05:00am 22.3 25.7 20.2 88 1.4 E 2 7 1 4 1012.2 1012.0 0.0
19/04:30am 24.0 28.9 22.3 90 1.1 CALM 0 0 0 0 1011.8 1011.6 0.0
19/04:00am 24.1 27.9 22.7 92 0.9 SE 7 9 4 5 1011.6 1011.4 0.0
19/03:30am 23.0 26.4 20.1 84 1.9 SE 2 6 1 3 1011.3 1011.1 0.0
19/03:00am 23.7 27.2 22.1 91 1.1 E 7 9 4 5 1011.5 1011.3 0.0
19/02:30am 22.7 26.6 20.4 87 1.5 CALM 0 0 0 0 1011.2 1011.0 0.0
19/02:00am 22.9 27.0 20.8 88 1.4 CALM 0 0 0 0 1011.2 1011.0 0.0
19/01:30am 22.8 26.0 20.5 87 1.5 SSE 4 7 2 4 1011.3 1011.1 0.0
19/01:00am 23.0 27.2 20.9 88 1.4 CALM 0 0 0 0 1011.7 1011.5 0.0
19/12:30am 23.6 27.9 21.1 86 1.6 CALM 0 0 0 0 1011.9 1011.7 0.0
19/12:00am 24.0 28.2 20.9 83 2.0 CALM 0 0 0 0 1012.2 1012.0 0.0
 
Date/Time
CST
Temp
°C
App
Temp
°C
Dew
Point
Rel
Hum
%
Delta-T
°C
Wind Press
QNH
hPa
Press
MSL
hPa
Rain
since 9 am
mm
Dir
 
Spd
km/h
Gust
km/h
Spd
kts
Gust
kts
18/11:30pm 24.3 28.6 21.2 83 2.0 CALM 0 0 0 0 1012.4 1012.2 0.0
18/11:00pm 24.6 29.1 21.5 83 2.1 CALM 0 0 0 0 1012.3 1012.1 0.0

Other Formats:

Comma delimited format used in spreadsheet applications
http://www.bom.gov.au/fwo/IDD60801/IDD60801.95111.axf

JavaScript Object Notation format (JSON) in row-major order
http://www.bom.gov.au/fwo/IDD60801/IDD60801.95111.json